createdAt,value
2022-09-01T00:01:51.010Z,95689.28
2022-09-01T00:04:23.195Z,95684.84
2022-09-01T00:06:50.953Z,95691.41
2022-09-01T00:09:22.250Z,95690.09
2022-09-01T00:11:52.575Z,95690.22
2022-09-01T00:14:29.978Z,95690.53
2022-09-01T00:16:59.591Z,95690.97
2022-09-01T00:19:28.963Z,95701.31
2022-09-01T00:21:57.143Z,95696.38
2022-09-01T00:24:27.193Z,95699.50
2022-09-01T00:26:56.111Z,95698.38
2022-09-01T00:29:25.143Z,95701.31
2022-09-01T00:31:53.442Z,95692.63
2022-09-01T00:34:21.711Z,95689.81
2022-09-01T00:36:49.606Z,95693.13
2022-09-01T00:39:17.605Z,95685.63
2022-09-01T00:41:47.931Z,95682.50
2022-09-01T00:44:18.965Z,95677.34
2022-09-01T00:46:55.577Z,95681.44
2022-09-01T00:49:29.757Z,95682.41
2022-09-01T00:52:03.201Z,95677.34
2022-09-01T00:54:35.071Z,95674.72
2022-09-01T00:57:06.226Z,95671.75
2022-09-01T00:59:34.252Z,95667.50
2022-09-01T01:02:01.982Z,95669.13
2022-09-01T01:04:30.240Z,95673.38
2022-09-01T01:07:01.731Z,95673.97
2022-09-01T01:09:33.855Z,95669.31
2022-09-01T01:12:05.922Z,95675.88
2022-09-01T01:14:36.984Z,95676.69
2022-09-01T01:17:05.060Z,95666.97
2022-09-01T01:19:59.039Z,95666.31
2022-09-01T01:22:54.272Z,95665.50
2022-09-01T01:25:24.015Z,95665.66
2022-09-01T01:27:52.112Z,95666.66
2022-09-01T01:30:20.881Z,95681.06
2022-09-01T01:32:49.497Z,95668.91
2022-09-01T01:35:23.361Z,95662.69
2022-09-01T01:37:51.895Z,95669.88
2022-09-01T01:40:22.832Z,95663.00
2022-09-01T01:42:54.213Z,95664.13
2022-09-01T01:45:24.623Z,95664.13
2022-09-01T01:47:54.495Z,95667.13
2022-09-01T01:50:23.806Z,95660.56
2022-09-01T01:52:57.133Z,95660.56
2022-09-01T01:55:27.975Z,95659.44
2022-09-01T01:57:58.078Z,95652.84
2022-09-01T02:00:30.996Z,95654.47
2022-09-01T02:02:59.642Z,95657.75
2022-09-01T02:05:32.225Z,95652.47
2022-09-01T02:08:04.632Z,95660.19
2022-09-01T02:10:35.305Z,95654.09
2022-09-01T02:13:07.684Z,95654.28
2022-09-01T02:15:44.157Z,95655.41
2022-09-01T02:18:14.183Z,95654.75
2022-09-01T02:20:42.288Z,95645.59
2022-09-01T02:23:10.903Z,95656.09
2022-09-01T02:26:05.178Z,95648.03
2022-09-01T02:28:36.885Z,95656.53
2022-09-01T02:31:05.781Z,95651.47
2022-09-01T02:33:33.999Z,95655.69
2022-09-01T02:36:04.618Z,95661.09
2022-09-01T02:38:33.854Z,95666.84
2022-09-01T02:41:03.427Z,95661.09
2022-09-01T02:43:33.798Z,95664.22
2022-09-01T02:46:03.056Z,95660.47
2022-09-01T02:48:34.165Z,95652.75
2022-09-01T02:51:02.999Z,95665.19
2022-09-01T02:53:30.955Z,95666.19
2022-09-01T02:55:59.550Z,95661.22
2022-09-01T02:58:27.414Z,95661.09
2022-09-01T03:00:58.600Z,95657.66
2022-09-01T03:03:27.223Z,95661.41
2022-09-01T03:05:56.368Z,95659.81
2022-09-01T03:08:25.688Z,95659.44
2022-09-01T03:10:54.480Z,95660.56
2022-09-01T03:13:25.270Z,95655.56
2022-09-01T03:15:52.963Z,95651.75
2022-09-01T03:18:22.405Z,95645.38
2022-09-01T03:20:53.101Z,95642.38
2022-09-01T03:23:21.023Z,95646.94
2022-09-01T03:25:49.440Z,95646.28
2022-09-01T03:28:17.768Z,95641.34
2022-09-01T03:30:49.015Z,95638.50
2022-09-01T03:33:19.871Z,95643.41
2022-09-01T03:35:49.678Z,95642.59
2022-09-01T03:38:22.143Z,95638.97
2022-09-01T03:40:52.703Z,95633.44
2022-09-01T03:43:23.542Z,95637.84
2022-09-01T03:45:51.601Z,95635.22
2022-09-01T03:48:20.492Z,95634.22
2022-09-01T03:50:50.184Z,95630.53
2022-09-01T03:53:25.126Z,95626.09
2022-09-01T03:55:54.947Z,95620.97
2022-09-01T03:58:23.549Z,95624.06
2022-09-01T04:00:56.174Z,95627.16
2022-09-01T04:03:28.736Z,95624.84
2022-09-01T04:05:59.944Z,95624.34
2022-09-01T04:08:32.831Z,95616.75
2022-09-01T04:11:05.188Z,95619.19
2022-09-01T04:13:36.813Z,95622.63
2022-09-01T04:16:10.418Z,95618.34
2022-09-01T04:18:40.098Z,95622.00
2022-09-01T04:21:10.803Z,95614.47
2022-09-01T04:23:38.516Z,95615.44
2022-09-01T04:26:10.039Z,95619.84
2022-09-01T04:28:40.183Z,95616.19
2022-09-01T04:31:10.219Z,95623.75
2022-09-01T04:33:40.037Z,95625.19
2022-09-01T04:36:19.582Z,95622.41
2022-09-01T04:38:48.099Z,95634.41
2022-09-01T04:41:17.619Z,95625.53
2022-09-01T04:43:47.451Z,95630.28
2022-09-01T04:46:15.492Z,95629.44
2022-09-01T04:48:46.090Z,95621.53
2022-09-01T04:51:15.901Z,95632.19
2022-09-01T04:53:48.633Z,95625.28
2022-09-01T04:56:19.474Z,95623.78
2022-09-01T04:58:47.858Z,95635.16
2022-09-01T05:01:17.498Z,95637.94
2022-09-01T05:03:45.739Z,95632.41
2022-09-01T05:06:19.688Z,95628.78
2022-09-01T05:08:47.593Z,95626.31
2022-09-01T05:11:17.812Z,95624.66
2022-09-01T05:13:46.299Z,95626.78
2022-09-01T05:16:16.385Z,95632.84
2022-09-01T05:18:47.900Z,95631.72
2022-09-01T05:21:22.176Z,95631.56
2022-09-01T05:23:50.550Z,95640.09
2022-09-01T05:26:20.703Z,95637.84
2022-09-01T05:28:51.148Z,95638.88
2022-09-01T05:31:19.704Z,95633.63
2022-09-01T05:33:48.370Z,95640.53
2022-09-01T05:36:20.232Z,95626.94
2022-09-01T05:38:48.782Z,95623.59
2022-09-01T05:41:19.480Z,95626.75
2022-09-01T05:43:50.449Z,95629.97
2022-09-01T05:46:21.010Z,95633.56
2022-09-01T05:48:50.521Z,95634.84
2022-09-01T05:51:43.403Z,95637.84
2022-09-01T05:54:12.142Z,95632.59
2022-09-01T05:56:44.017Z,95632.59
2022-09-01T05:59:27.743Z,95636.53
2022-09-01T06:01:56.739Z,95640.19
2022-09-01T06:04:25.975Z,95629.34
2022-09-01T06:07:06.770Z,95637.59
2022-09-01T06:09:39.173Z,95635.19
2022-09-01T06:12:07.275Z,95633.13
2022-09-01T06:14:35.039Z,95632.50
2022-09-01T06:17:03.241Z,95629.34
2022-09-01T06:19:37.114Z,95638.00
2022-09-01T06:22:07.284Z,95631.69
2022-09-01T06:24:35.058Z,95640.13
2022-09-01T06:27:02.729Z,95639.50
2022-09-01T06:29:31.340Z,95644.94
2022-09-01T06:32:02.357Z,95650.50
2022-09-01T06:34:30.171Z,95640.00
2022-09-01T06:36:57.861Z,95642.50
2022-09-01T06:39:26.919Z,95645.13
2022-09-01T06:41:58.141Z,95640.00
2022-09-01T06:44:25.936Z,95640.78
2022-09-01T06:46:54.023Z,95636.66
2022-09-01T06:49:32.590Z,95637.41
2022-09-01T06:52:00.371Z,95644.97
2022-09-01T06:54:34.313Z,95643.81
2022-09-01T06:58:03.366Z,95647.13
2022-09-01T06:59:54.048Z,95657.44
2022-09-01T07:02:26.558Z,95656.91
2022-09-01T07:04:55.106Z,95659.97
2022-09-01T07:10:21.359Z,95665.56
2022-09-01T07:13:06.617Z,95675.78
2022-09-01T07:18:26.519Z,95669.91
2022-09-01T07:21:07.072Z,95677.81
2022-09-01T07:24:05.845Z,95678.31
2022-09-01T07:26:33.967Z,95683.75
2022-09-01T07:29:04.254Z,95687.03
2022-09-01T07:32:43.545Z,95687.03
2022-09-01T07:34:40.868Z,95680.78
2022-09-01T07:38:47.838Z,95684.25
2022-09-01T07:45:31.097Z,95689.47
2022-09-01T07:48:03.167Z,95685.22
2022-09-01T07:53:22.458Z,95687.34
2022-09-01T07:55:51.651Z,95689.38
2022-09-01T07:58:22.065Z,95690.03
2022-09-01T08:00:49.986Z,95697.75
2022-09-01T08:03:20.418Z,95696.59
2022-09-01T08:05:51.242Z,95704.16
2022-09-01T08:08:19.577Z,95700.06
2022-09-01T08:10:49.402Z,95689.69
2022-09-01T08:13:21.410Z,95690.34
2022-09-01T08:16:08.516Z,95702.69
2022-09-01T08:18:52.597Z,95705.31
2022-09-01T08:21:23.479Z,95707.59
2022-09-01T08:23:52.315Z,95714.00
2022-09-01T08:26:22.628Z,95718.72
2022-09-01T08:28:55.080Z,95718.56
2022-09-01T08:31:30.763Z,95719.06
2022-09-01T08:34:00.002Z,95722.88
2022-09-01T08:36:27.821Z,95719.91
2022-09-01T08:38:55.652Z,95719.94
2022-09-01T08:41:38.007Z,95720.66
2022-09-01T08:44:14.932Z,95722.63
2022-09-01T08:46:44.906Z,95719.81
2022-09-01T08:49:25.200Z,95725.56
2022-09-01T08:51:59.067Z,95725.53
2022-09-01T08:54:38.066Z,95728.88
2022-09-01T08:57:09.959Z,95725.91
2022-09-01T08:59:38.263Z,95726.72
2022-09-01T09:02:24.409Z,95726.91
2022-09-01T09:05:15.617Z,95728.19
2022-09-01T09:08:07.968Z,95717.66
2022-09-01T09:10:49.268Z,95731.13
2022-09-01T09:13:23.136Z,95728.31
2022-09-01T09:16:07.260Z,95718.16
2022-09-01T09:18:59.301Z,95722.13
2022-09-01T09:21:31.018Z,95721.94
2022-09-01T09:24:07.128Z,95715.56
2022-09-01T09:26:50.104Z,95718.66
2022-09-01T09:29:18.600Z,95722.94
2022-09-01T09:31:50.480Z,95728.84
2022-09-01T09:34:33.232Z,95715.53
2022-09-01T09:37:22.190Z,95727.16
2022-09-01T09:40:21.509Z,95725.72
2022-09-01T09:43:06.547Z,95721.97
2022-09-01T09:45:37.981Z,95718.03
2022-09-01T09:48:10.930Z,95709.78
2022-09-01T09:50:43.163Z,95711.53
2022-09-01T09:53:27.302Z,95711.06
2022-09-01T09:55:59.991Z,95705.59
2022-09-01T09:58:36.296Z,95708.41
2022-09-01T10:01:08.527Z,95698.41
2022-09-01T10:03:43.260Z,95697.66
2022-09-01T10:06:14.920Z,95698.34
2022-09-01T10:08:46.676Z,95702.13
2022-09-01T10:11:33.495Z,95704.44
2022-09-01T10:14:08.051Z,95704.97
2022-09-01T10:16:43.279Z,95702.66
2022-09-01T10:19:16.376Z,95702.50
2022-09-01T10:21:48.799Z,95704.81
2022-09-01T10:24:30.462Z,95699.88
2022-09-01T10:27:01.655Z,95697.41
2022-09-01T10:29:46.981Z,95693.81
2022-09-01T10:32:38.679Z,95700.38
2022-09-01T10:35:18.252Z,95698.31
2022-09-01T10:37:49.078Z,95683.63
2022-09-01T10:40:30.249Z,95699.94
2022-09-01T10:43:22.790Z,95697.31
2022-09-01T10:45:59.528Z,95693.56
2022-09-01T10:48:47.854Z,95695.00
2022-09-01T10:51:55.137Z,95695.53
2022-09-01T10:55:04.078Z,95692.88
2022-09-01T11:03:56.364Z,95687.41
2022-09-01T11:07:13.100Z,95686.78
2022-09-01T11:09:42.857Z,95689.91
2022-09-01T11:12:46.830Z,95684.59
2022-09-01T11:15:40.054Z,95679.28
2022-09-01T11:18:14.540Z,95681.44
2022-09-01T11:20:46.355Z,95679.84
2022-09-01T11:23:22.504Z,95670.28
2022-09-01T11:28:43.583Z,95666.75
2022-09-01T11:31:28.024Z,95665.91
2022-09-01T11:34:10.748Z,95661.81
2022-09-01T11:36:51.072Z,95664.81
2022-09-01T11:39:34.752Z,95666.16
2022-09-01T11:42:07.081Z,95666.94
2022-09-01T11:44:49.057Z,95666.97
2022-09-01T11:47:21.005Z,95667.25
2022-09-01T11:49:53.131Z,95663.03
2022-09-01T11:52:23.508Z,95658.00
2022-09-01T11:54:51.849Z,95658.88
2022-09-01T11:57:25.174Z,95657.00
2022-09-01T11:59:54.968Z,95654.09
2022-09-01T12:02:25.212Z,95649.03
2022-09-01T12:04:54.787Z,95656.41
2022-09-01T12:07:31.260Z,95664.47
2022-09-01T12:09:59.070Z,95653.81
2022-09-01T12:12:31.690Z,95663.34
2022-09-01T12:15:06.225Z,95653.78
2022-09-01T12:17:34.537Z,95656.53
2022-09-01T12:20:21.266Z,95648.97
2022-09-01T12:22:51.038Z,95645.97
2022-09-01T12:25:24.210Z,95643.34
2022-09-01T12:27:53.934Z,95649.91
2022-09-01T12:30:26.946Z,95657.06
2022-09-01T12:33:22.775Z,95650.44
2022-09-01T12:35:43.877Z,95655.25
2022-09-01T12:38:23.174Z,95664.00
2022-09-01T12:40:53.204Z,95654.72
2022-09-01T12:43:37.105Z,95660.06
2022-09-01T12:46:09.258Z,95653.78
2022-09-01T12:48:40.854Z,95654.22
2022-09-01T12:51:19.177Z,95663.34
2022-09-01T12:53:54.388Z,95650.25
2022-09-01T12:56:28.564Z,95652.38
2022-09-01T12:59:14.316Z,95662.16
2022-09-01T13:01:45.368Z,95658.97
2022-09-01T13:04:26.221Z,95650.38
2022-09-01T13:06:55.444Z,95646.31
2022-09-01T13:09:23.115Z,95655.56
2022-09-01T13:12:07.503Z,95656.88
2022-09-01T13:14:35.690Z,95649.16
2022-09-01T13:17:05.979Z,95644.72
2022-09-01T13:19:42.104Z,95652.91
2022-09-01T13:22:09.836Z,95651.28
2022-09-01T13:24:37.901Z,95655.94
2022-09-01T13:27:21.774Z,95652.47
2022-09-01T13:29:50.320Z,95651.81
2022-09-01T13:32:21.670Z,95645.03
2022-09-01T13:34:51.720Z,95651.06
2022-09-01T13:37:20.896Z,95643.47
2022-09-01T13:39:48.798Z,95648.44
2022-09-01T13:42:16.647Z,95650.50
2022-09-01T13:44:44.580Z,95643.78
2022-09-01T13:47:28.938Z,95642.16
2022-09-01T13:50:08.237Z,95641.69
2022-09-01T13:52:37.890Z,95643.88
2022-09-01T13:55:06.841Z,95634.50
2022-09-01T13:57:36.568Z,95626.19
2022-09-01T14:00:08.184Z,95627.91
2022-09-01T14:02:36.753Z,95624.69
2022-09-01T14:05:07.010Z,95627.91
2022-09-01T14:07:34.718Z,95616.41
2022-09-01T14:10:02.735Z,95615.50
2022-09-01T14:12:30.825Z,95618.38
2022-09-01T14:15:17.126Z,95618.28
2022-09-01T14:17:46.530Z,95609.81
2022-09-01T14:20:19.233Z,95615.72
2022-09-01T14:22:47.758Z,95612.06
2022-09-01T14:25:16.612Z,95603.47
2022-09-01T14:27:44.989Z,95605.81
2022-09-01T14:30:17.465Z,95602.19
2022-09-01T14:32:45.178Z,95604.69
2022-09-01T14:35:13.518Z,95596.50
2022-09-01T14:37:43.976Z,95597.72
2022-09-01T14:40:16.925Z,95591.41
2022-09-01T14:42:49.390Z,95593.25
2022-09-01T14:45:18.459Z,95587.72
2022-09-01T14:47:46.393Z,95595.06
2022-09-01T14:50:16.034Z,95599.16
2022-09-01T14:52:48.042Z,95588.94
2022-09-01T14:55:17.087Z,95585.06
2022-09-01T14:57:44.896Z,95592.03
2022-09-01T15:00:13.925Z,95595.06
2022-09-01T15:02:43.747Z,95587.91
2022-09-01T15:05:13.076Z,95582.63
2022-09-01T15:07:41.884Z,95583.22
2022-09-01T15:10:15.940Z,95592.00
2022-09-01T15:12:52.359Z,95583.25
2022-09-01T15:15:20.082Z,95580.78
2022-09-01T15:17:47.834Z,95578.31
2022-09-01T15:20:33.187Z,95584.03
2022-09-01T15:23:02.090Z,95582.19
2022-09-01T15:25:31.257Z,95582.19
2022-09-01T15:27:58.923Z,95585.47
2022-09-01T15:30:27.992Z,95584.22
2022-09-01T15:32:56.063Z,95580.56
2022-09-01T15:35:24.624Z,95580.56
2022-09-01T15:37:53.067Z,95574.84
2022-09-01T15:40:21.426Z,95571.16
2022-09-01T15:42:50.679Z,95576.06
2022-09-01T15:45:21.200Z,95576.47
2022-09-01T15:47:49.371Z,95578.91
2022-09-01T15:50:21.671Z,95581.16
2022-09-01T15:52:52.782Z,95583.19
2022-09-01T15:55:23.761Z,95581.97
2022-09-01T15:57:54.923Z,95575.63
2022-09-01T16:00:24.655Z,95573.72
2022-09-01T16:02:54.391Z,95582.97
2022-09-01T16:05:22.270Z,95573.19
2022-09-01T16:07:52.825Z,95580.53
2022-09-01T16:10:21.130Z,95573.13
2022-09-01T16:12:52.548Z,95577.56
2022-09-01T16:15:23.636Z,95579.16
2022-09-01T16:18:18.121Z,95574.28
2022-09-01T16:20:55.444Z,95578.72
2022-09-01T16:23:24.680Z,95579.81
2022-09-01T16:25:53.665Z,95584.22
2022-09-01T16:28:29.306Z,95576.03
2022-09-01T16:31:03.280Z,95577.44
2022-09-01T16:33:33.023Z,95582.28
2022-09-01T16:36:17.177Z,95587.41
2022-09-01T16:38:49.398Z,95584.94
2022-09-01T16:41:37.158Z,95582.94
2022-09-01T16:44:15.311Z,95595.63
2022-09-01T16:46:55.282Z,95590.06
2022-09-01T16:49:35.700Z,95586.19
2022-09-01T16:52:08.173Z,95599.19
2022-09-01T16:54:47.835Z,95594.34
2022-09-01T16:57:29.301Z,95596.59
2022-09-01T16:59:59.982Z,95598.09
2022-09-01T17:02:38.433Z,95598.47
2022-09-01T17:05:18.691Z,95599.59
2022-09-01T17:07:52.257Z,95598.56
2022-09-01T17:10:30.240Z,95601.34
2022-09-01T17:12:59.464Z,95594.88
2022-09-01T17:15:33.058Z,95598.38
2022-09-01T17:18:10.738Z,95604.97
2022-09-01T17:20:58.125Z,95603.06
2022-09-01T17:23:29.115Z,95603.28
2022-09-01T17:26:03.071Z,95616.44
2022-09-01T17:28:35.667Z,95615.28
2022-09-01T17:31:14.435Z,95605.91
2022-09-01T17:34:01.867Z,95611.34
2022-09-01T17:36:46.216Z,95617.75
2022-09-01T17:39:23.488Z,95613.22
2022-09-01T17:41:57.559Z,95618.59
2022-09-01T17:44:35.570Z,95610.56
2022-09-01T17:47:12.582Z,95619.06
2022-09-01T17:49:51.811Z,95614.72
2022-09-01T17:52:30.406Z,95621.53
2022-09-01T17:55:04.813Z,95621.91
2022-09-01T17:57:39.765Z,95631.63
2022-09-01T18:00:14.859Z,95629.91
2022-09-01T18:02:58.853Z,95626.97
2022-09-01T18:05:28.710Z,95626.06
2022-09-01T18:08:19.210Z,95631.34
2022-09-01T18:10:54.880Z,95632.59
2022-09-01T18:13:54.308Z,95629.03
2022-09-01T18:16:18.219Z,95635.38
2022-09-01T18:18:48.480Z,95642.34
2022-09-01T18:21:19.103Z,95637.56
2022-09-01T18:23:49.105Z,95636.44
2022-09-01T18:26:26.336Z,95647.38
2022-09-01T18:28:55.579Z,95645.25
2022-09-01T18:31:47.030Z,95646.81
2022-09-01T18:34:27.709Z,95653.84
2022-09-01T18:37:07.019Z,95647.72
2022-09-01T18:39:44.754Z,95659.78
2022-09-01T18:42:22.764Z,95658.69
2022-09-01T18:44:58.648Z,95662.06
2022-09-01T18:47:31.766Z,95656.88
2022-09-01T18:50:08.103Z,95660.91
2022-09-01T18:52:58.719Z,95653.78
2022-09-01T18:55:34.532Z,95663.69
2022-09-01T18:58:11.032Z,95666.22
2022-09-01T19:00:45.277Z,95664.56
2022-09-01T19:03:23.712Z,95658.41
2022-09-01T19:06:14.487Z,95664.16
2022-09-01T19:08:56.299Z,95662.59
2022-09-01T19:11:35.675Z,95669.16
2022-09-01T19:14:15.013Z,95666.09
2022-09-01T19:16:55.802Z,95667.81
2022-09-01T19:19:39.102Z,95664.56
2022-09-01T19:22:37.941Z,95662.53
2022-09-01T19:25:43.994Z,95663.69
2022-09-01T19:29:08.692Z,95667.75
2022-09-01T19:32:06.048Z,95661.03
2022-09-01T19:35:02.883Z,95662.63
2022-09-01T19:37:56.259Z,95664.63
2022-09-01T19:41:01.194Z,95657.22
2022-09-01T19:46:38.109Z,95659.91
2022-09-01T19:49:24.189Z,95660.56
2022-09-01T19:52:49.024Z,95661.94
2022-09-01T19:59:54.654Z,95657.84
2022-09-01T20:02:51.745Z,95651.78
2022-09-01T20:05:55.350Z,95648.53
2022-09-01T20:09:02.167Z,95655.50
2022-09-01T20:11:54.264Z,95657.28
2022-09-01T20:15:02.357Z,95645.72
2022-09-01T20:17:36.039Z,95646.94
2022-09-01T20:20:10.134Z,95648.16
2022-09-01T20:22:44.913Z,95648.47
2022-09-01T20:25:15.496Z,95647.19
2022-09-01T20:27:51.080Z,95643.00
2022-09-01T20:30:21.160Z,95644.06
2022-09-01T20:32:59.841Z,95645.41
2022-09-01T20:35:37.531Z,95640.69
2022-09-01T20:38:35.539Z,95636.06
2022-09-01T20:41:19.090Z,95636.34
2022-09-01T20:43:53.119Z,95642.59
2022-09-01T20:46:22.140Z,95640.97
2022-09-01T20:48:54.479Z,95639.50
2022-09-01T20:51:29.299Z,95650.50
2022-09-01T20:54:14.391Z,95641.47
2022-09-01T20:56:55.212Z,95647.44
2022-09-01T20:59:33.389Z,95643.66
2022-09-01T21:02:07.786Z,95646.63
2022-09-01T21:04:47.501Z,95648.41
2022-09-01T21:07:19.205Z,95643.00
2022-09-01T21:09:58.682Z,95643.50
2022-09-01T21:12:36.740Z,95644.47
2022-09-01T21:15:16.621Z,95644.16
2022-09-01T21:17:53.037Z,95649.41
2022-09-01T21:20:32.853Z,95642.84
2022-09-01T21:23:01.910Z,95643.97
2022-09-01T21:25:34.282Z,95643.34
2022-09-01T21:28:06.530Z,95639.38
2022-09-01T21:30:36.920Z,95641.38
2022-09-01T21:33:05.011Z,95646.00
2022-09-01T21:35:34.076Z,95645.47
2022-09-01T21:38:01.790Z,95640.38
2022-09-01T21:40:29.632Z,95637.91
2022-09-01T21:43:00.981Z,95633.47
2022-09-01T21:45:41.503Z,95643.31
2022-09-01T21:48:09.847Z,95636.59
2022-09-01T21:50:40.377Z,95634.44
2022-09-01T21:53:08.483Z,95628.19
2022-09-01T21:55:36.680Z,95625.22
2022-09-01T21:58:04.936Z,95624.09
2022-09-01T22:00:35.653Z,95622.94
2022-09-01T22:03:04.352Z,95613.41
2022-09-01T22:05:33.130Z,95613.41
2022-09-01T22:08:03.327Z,95605.84
2022-09-01T22:10:32.650Z,95607.16
2022-09-01T22:13:03.461Z,95605.84
2022-09-01T22:15:31.566Z,95602.41
2022-09-01T22:18:00.391Z,95599.78
2022-09-01T22:20:29.189Z,95597.78
2022-09-01T22:22:57.862Z,95601.91
2022-09-01T22:25:28.103Z,95600.56
2022-09-01T22:27:55.986Z,95598.78
2022-09-01T22:30:23.694Z,95596.63
2022-09-01T22:32:51.463Z,95597.47
2022-09-01T22:35:20.339Z,95599.78
2022-09-01T22:37:48.086Z,95594.22
2022-09-01T22:40:17.157Z,95590.09
2022-09-01T22:42:46.867Z,95594.03
2022-09-01T22:45:16.440Z,95589.41
2022-09-01T22:47:44.140Z,95582.50
2022-09-01T22:50:12.390Z,95587.50
2022-09-01T22:52:40.758Z,95578.31
2022-09-01T22:55:10.161Z,95580.31
2022-09-01T22:57:38.631Z,95581.13
2022-09-01T23:00:10.773Z,95581.41
2022-09-01T23:02:39.048Z,95583.56
2022-09-01T23:05:08.505Z,95575.31
2022-09-01T23:07:39.497Z,95577.47
2022-09-01T23:10:09.412Z,95576.63
2022-09-01T23:12:37.179Z,95582.19
2022-09-01T23:15:05.853Z,95581.56
2022-09-01T23:17:36.804Z,95575.44
2022-09-01T23:20:07.117Z,95576.44
2022-09-01T23:22:34.807Z,95575.44
2022-09-01T23:25:02.567Z,95577.09
2022-09-01T23:27:31.668Z,95578.03
2022-09-01T23:30:00.001Z,95565.53
2022-09-01T23:32:27.828Z,95562.59
2022-09-01T23:34:57.038Z,95566.81
2022-09-01T23:37:24.718Z,95561.88
2022-09-01T23:39:53.363Z,95566.97
2022-09-01T23:42:21.747Z,95570.06
2022-09-01T23:44:49.749Z,95574.97
2022-09-01T23:47:17.466Z,95560.03
2022-09-01T23:49:45.127Z,95558.84
2022-09-01T23:52:14.315Z,95560.94
2022-09-01T23:54:42.004Z,95556.34
2022-09-01T23:57:10.495Z,95552.22
2022-09-01T23:59:38.218Z,95550.38
